Terminal Aerodrome Forecast
Issued by NWS Cleveland, OH

Home | Current Version | Previous Version | Text Only | Print | Product List | Glossary On
Versions: 1 2 3 4 5 6 7 8 9 10 11 12 13 14 15 16 17 18 19 20 21
000
FTUS41 KCLE 280700 AAA
TAFCLE
TAF AMD
KCLE 280710Z 2807/2912 31012KT 5SM -SHRA BR BKN006 OVC018
      TEMPO 2808/2809 4SM -SHRA BR BKN018 OVC025
     FM280900 31010KT P6SM SCT008 OVC015
     FM281700 31010KT P6SM OVC022
     FM282300 31006KT P6SM BKN035=

USA.gov is the U.S. government's official web portal to all federal, state and local government web resources and services.